createdAt,value
2019-05-12T00:01:31.293Z,99.90
2019-05-12T00:04:01.788Z,99.90
2019-05-12T00:06:32.324Z,99.90
2019-05-12T00:09:03.762Z,99.90
2019-05-12T00:11:34.203Z,99.90
2019-05-12T00:14:05.085Z,99.90
2019-05-12T00:16:37.841Z,99.90
2019-05-12T00:19:09.220Z,99.90
2019-05-12T00:21:40.901Z,99.90
2019-05-12T00:24:12.382Z,99.90
2019-05-12T00:26:43.391Z,99.90
2019-05-12T00:29:13.848Z,99.90
2019-05-12T00:31:47.631Z,99.90
2019-05-12T00:34:18.407Z,99.90
2019-05-12T00:36:49.387Z,99.90
2019-05-12T00:39:19.783Z,99.90
2019-05-12T00:41:50.319Z,99.90
2019-05-12T00:44:20.770Z,99.90
2019-05-12T00:46:51.234Z,99.90
2019-05-12T00:49:33.367Z,99.90
2019-05-12T00:52:04.647Z,99.90
2019-05-12T00:54:37.464Z,99.90
2019-05-12T00:57:07.844Z,99.90
2019-05-12T00:59:39.264Z,99.90
2019-05-12T01:02:10.507Z,99.90
2019-05-12T01:04:41.010Z,99.90
2019-05-12T01:07:11.527Z,99.90
2019-05-12T01:09:41.978Z,99.90
2019-05-12T01:12:12.697Z,99.90
2019-05-12T01:14:44.248Z,99.90
2019-05-12T01:17:14.578Z,99.90
2019-05-12T01:19:45.267Z,99.90
2019-05-12T01:22:15.794Z,99.90
2019-05-12T01:24:48.193Z,99.90
2019-05-12T01:27:18.639Z,99.90
2019-05-12T01:29:49.497Z,99.90
2019-05-12T01:32:33.292Z,99.90
2019-05-12T01:35:03.938Z,99.90
2019-05-12T01:37:34.472Z,99.90
2019-05-12T01:40:08.469Z,99.90
2019-05-12T01:42:38.389Z,99.90
2019-05-12T01:45:09.577Z,99.90
2019-05-12T01:47:39.988Z,99.90
2019-05-12T01:50:10.561Z,99.90
2019-05-12T01:52:42.603Z,99.90
2019-05-12T01:55:13.508Z,99.90
2019-05-12T01:57:44.039Z,99.90
2019-05-12T02:00:14.952Z,99.90
2019-05-12T02:02:47.889Z,99.90
2019-05-12T02:05:18.328Z,99.90
2019-05-12T02:07:51.368Z,99.90
2019-05-12T02:10:22.348Z,99.90
2019-05-12T02:12:52.920Z,99.90
2019-05-12T02:15:23.931Z,99.90
2019-05-12T02:17:54.404Z,99.90
2019-05-12T02:20:25.421Z,99.90
2019-05-12T02:22:58.132Z,99.90
2019-05-12T02:25:28.856Z,99.90
2019-05-12T02:27:59.713Z,99.90
2019-05-12T02:30:30.901Z,99.90
2019-05-12T02:33:04.996Z,99.90
2019-05-12T02:35:35.416Z,99.90
2019-05-12T02:38:06.724Z,99.90
2019-05-12T02:40:37.202Z,99.90
2019-05-12T02:43:07.759Z,99.90
2019-05-12T02:45:38.198Z,99.90
2019-05-12T02:48:08.637Z,99.90
2019-05-12T02:50:39.043Z,99.90
2019-05-12T02:53:10.587Z,99.90
2019-05-12T02:55:44.974Z,99.90
2019-05-12T02:58:16.842Z,99.90
2019-05-12T03:00:47.777Z,99.90
2019-05-12T03:03:24.919Z,99.90
2019-05-12T03:05:55.668Z,99.90
2019-05-12T03:08:28.668Z,99.90
2019-05-12T03:10:59.432Z,99.90
2019-05-12T03:13:30.045Z,99.90
2019-05-12T03:16:00.526Z,99.90
2019-05-12T03:18:34.521Z,99.90
2019-05-12T03:21:05.688Z,99.90
2019-05-12T03:23:35.414Z,99.90
2019-05-12T03:26:06.049Z,99.90
2019-05-12T03:28:37.537Z,99.90
2019-05-12T03:31:08.663Z,99.90
2019-05-12T03:33:43.101Z,99.90
2019-05-12T03:36:17.145Z,99.90
2019-05-12T03:38:44.693Z,99.90
2019-05-12T03:41:15.474Z,99.90
2019-05-12T03:43:45.894Z,99.90
2019-05-12T03:46:16.333Z,99.90
2019-05-12T03:48:46.889Z,99.90
2019-05-12T03:51:17.656Z,99.90
2019-05-12T03:53:48.068Z,99.90
2019-05-12T03:56:21.161Z,99.90
2019-05-12T03:58:54.114Z,99.90
2019-05-12T04:01:25.588Z,99.90
2019-05-12T04:03:56.066Z,99.90
2019-05-12T04:06:26.599Z,99.90
2019-05-12T04:08:59.928Z,99.90
2019-05-12T04:11:29.356Z,99.90
2019-05-12T04:13:59.739Z,99.90
2019-05-12T04:16:30.204Z,99.90
2019-05-12T04:19:00.776Z,99.90
2019-05-12T04:21:31.218Z,99.90
2019-05-12T04:24:05.048Z,99.90
2019-05-12T04:26:36.396Z,99.90
2019-05-12T04:29:06.252Z,99.90
2019-05-12T04:31:37.119Z,99.90
2019-05-12T04:34:07.555Z,99.90
2019-05-12T04:36:38.041Z,99.90
2019-05-12T04:39:08.617Z,99.90
2019-05-12T04:41:39.100Z,99.90
2019-05-12T04:44:09.451Z,99.90
2019-05-12T04:46:39.947Z,99.90
2019-05-12T04:49:10.368Z,99.90
2019-05-12T04:51:40.752Z,99.90
2019-05-12T04:54:14.974Z,99.90
2019-05-12T04:56:44.607Z,99.90
2019-05-12T04:59:16.502Z,99.90
2019-05-12T05:01:47.336Z,99.90
2019-05-12T05:04:17.788Z,99.90
2019-05-12T05:06:48.192Z,99.90
2019-05-12T05:09:18.971Z,99.90
2019-05-12T05:11:49.470Z,99.90
2019-05-12T05:14:20.055Z,99.90
2019-05-12T05:16:50.492Z,99.90
2019-05-12T05:19:20.865Z,99.90
2019-05-12T05:21:51.456Z,99.90
2019-05-12T05:24:23.547Z,99.90
2019-05-12T05:26:54.181Z,99.90
2019-05-12T05:29:24.699Z,99.90
2019-05-12T05:31:55.487Z,99.90
2019-05-12T05:34:26.115Z,99.90
2019-05-12T05:37:01.392Z,99.90
2019-05-12T05:39:28.628Z,99.90
2019-05-12T05:41:58.991Z,99.90
2019-05-12T05:44:33.854Z,99.90
2019-05-12T05:47:01.627Z,99.90
2019-05-12T05:49:33.707Z,99.90
2019-05-12T05:52:04.278Z,99.90
2019-05-12T05:54:35.997Z,99.90
2019-05-12T05:57:06.873Z,99.90
2019-05-12T05:59:38.303Z,99.90
2019-05-12T06:02:09.605Z,99.90
2019-05-12T06:04:45.448Z,99.90
2019-05-12T06:07:14.374Z,99.90
2019-05-12T06:09:45.260Z,99.90
2019-05-12T06:12:15.787Z,99.90
2019-05-12T06:14:54.348Z,99.90
2019-05-12T06:17:18.808Z,99.90
2019-05-12T06:19:49.220Z,99.90
2019-05-12T06:22:19.708Z,99.90
2019-05-12T06:24:56.976Z,99.90
2019-05-12T06:27:24.323Z,99.90
2019-05-12T06:30:00.950Z,99.90
2019-05-12T06:32:26.768Z,99.90
2019-05-12T06:35:01.486Z,99.90
2019-05-12T06:37:29.675Z,99.90
2019-05-12T06:40:00.591Z,99.90
2019-05-12T06:42:31.212Z,99.90
2019-05-12T06:45:03.782Z,99.90
2019-05-12T06:47:34.301Z,99.90
2019-05-12T06:50:05.898Z,99.90
2019-05-12T06:52:38.618Z,99.90
2019-05-12T06:55:08.856Z,99.90
2019-05-12T06:57:40.014Z,99.90
2019-05-12T07:00:14.401Z,99.90
2019-05-12T07:02:49.998Z,99.90
2019-05-12T07:05:16.423Z,99.90
2019-05-12T07:07:46.791Z,99.90
2019-05-12T07:10:35.602Z,99.90
2019-05-12T07:12:58.800Z,99.90
2019-05-12T07:15:23.378Z,99.90
2019-05-12T07:17:58.875Z,99.90
2019-05-12T07:20:34.147Z,99.90
2019-05-12T07:23:03.518Z,99.90
2019-05-12T07:25:36.801Z,99.90
2019-05-12T07:28:08.249Z,99.90
2019-05-12T07:30:38.898Z,99.90
2019-05-12T07:33:09.643Z,99.90
2019-05-12T07:35:44.238Z,99.90
2019-05-12T07:38:20.837Z,99.90
2019-05-12T07:40:49.199Z,99.90
2019-05-12T07:43:21.459Z,99.90
2019-05-12T07:46:02.088Z,99.90
2019-05-12T07:48:25.767Z,99.90
2019-05-12T07:51:00.397Z,99.90
2019-05-12T07:53:28.536Z,99.90
2019-05-12T07:55:58.877Z,99.90
2019-05-12T07:58:29.367Z,99.90
2019-05-12T08:01:02.967Z,99.90
2019-05-12T08:03:34.549Z,99.90
2019-05-12T08:06:05.280Z,99.90
2019-05-12T08:08:35.741Z,99.90
2019-05-12T08:11:06.247Z,99.90
2019-05-12T08:13:40.834Z,99.90
2019-05-12T08:16:09.115Z,99.90
2019-05-12T08:18:41.088Z,99.90
2019-05-12T08:21:13.786Z,99.90
2019-05-12T08:23:44.582Z,99.90
2019-05-12T08:26:18.499Z,99.90
2019-05-12T08:28:48.181Z,99.90
2019-05-12T08:31:23.418Z,99.90
2019-05-12T08:33:53.822Z,99.90
2019-05-12T08:36:25.576Z,99.90
2019-05-12T08:38:56.076Z,99.90
2019-05-12T08:41:26.471Z,99.90
2019-05-12T08:43:58.505Z,99.90
2019-05-12T08:46:30.499Z,99.90
2019-05-12T08:49:04.803Z,99.90
2019-05-12T08:51:33.916Z,99.90
2019-05-12T08:54:07.872Z,99.90
2019-05-12T08:56:37.928Z,99.90
2019-05-12T08:59:09.737Z,99.90
2019-05-12T09:01:40.867Z,99.90
2019-05-12T09:04:15.794Z,99.90
2019-05-12T09:06:44.057Z,99.90
2019-05-12T09:09:14.540Z,99.90
2019-05-12T09:11:46.036Z,99.90
2019-05-12T09:14:18.399Z,99.90
2019-05-12T09:16:56.003Z,99.90
2019-05-12T09:19:26.426Z,99.90
2019-05-12T09:21:54.540Z,99.90
2019-05-12T09:24:27.268Z,99.90
2019-05-12T09:26:59.091Z,99.90
2019-05-12T09:29:29.499Z,99.90
2019-05-12T09:32:07.381Z,99.90
2019-05-12T09:34:33.533Z,99.90
2019-05-12T09:37:04.353Z,99.90
2019-05-12T09:39:42.542Z,99.90
2019-05-12T09:42:07.332Z,97.30
2019-05-12T09:44:37.857Z,98.50
2019-05-12T09:47:21.754Z,93.90
2019-05-12T09:49:40.968Z,94.30
2019-05-12T09:52:13.936Z,95.60
2019-05-12T09:54:44.409Z,97.60
2019-05-12T09:57:15.171Z,99.90
2019-05-12T09:59:56.595Z,99.70
2019-05-12T10:02:20.997Z,95.90
2019-05-12T10:04:56.383Z,94.90
2019-05-12T10:07:24.423Z,89.30
2019-05-12T10:09:58.900Z,88.40
2019-05-12T10:12:29.653Z,92.70
2019-05-12T10:15:00.283Z,94.60
2019-05-12T10:17:30.843Z,95.60
2019-05-12T10:20:01.430Z,97.10
2019-05-12T10:22:39.732Z,98.10
2019-05-12T10:25:09.361Z,86.40
2019-05-12T10:27:40.075Z,75.90
2019-05-12T10:30:12.634Z,79.60
2019-05-12T10:32:43.815Z,78.50
2019-05-12T10:35:26.177Z,70.90
2019-05-12T10:37:48.484Z,65.40
2019-05-12T10:40:19.471Z,59.80
2019-05-12T10:42:50.047Z,70.30
2019-05-12T10:45:23.647Z,74.70
2019-05-12T10:47:54.249Z,71.70
2019-05-12T10:50:25.047Z,71.60
2019-05-12T10:52:55.522Z,79.00
2019-05-12T10:55:26.127Z,83.50
2019-05-12T10:58:01.468Z,78.40
2019-05-12T11:00:29.075Z,68.40
2019-05-12T11:03:01.677Z,63.90
2019-05-12T11:05:34.173Z,64.20
2019-05-12T11:08:11.301Z,60.50
2019-05-12T11:10:42.051Z,61.10
2019-05-12T11:13:14.207Z,59.90
2019-05-12T11:15:49.560Z,63.90
2019-05-12T11:18:24.884Z,58.00
2019-05-12T11:20:54.358Z,55.20
2019-05-12T11:23:24.717Z,54.90
2019-05-12T11:25:55.855Z,53.60
2019-05-12T11:28:27.153Z,51.30
2019-05-12T11:30:57.759Z,53.00
2019-05-12T11:33:29.947Z,53.70
2019-05-12T11:36:00.787Z,57.00
2019-05-12T11:38:33.620Z,58.60
2019-05-12T11:41:04.813Z,59.80
2019-05-12T11:43:42.555Z,66.00
2019-05-12T11:46:14.937Z,66.10
2019-05-12T11:48:49.085Z,72.00
2019-05-12T11:51:20.824Z,74.90
2019-05-12T11:53:50.199Z,73.70
2019-05-12T11:56:21.096Z,72.50
2019-05-12T11:58:54.070Z,68.70
2019-05-12T12:01:25.586Z,75.90
2019-05-12T12:03:57.022Z,75.40
2019-05-12T12:06:27.478Z,71.80
2019-05-12T12:08:57.863Z,72.80
2019-05-12T12:11:28.680Z,80.50
2019-05-12T12:14:00.216Z,81.60
2019-05-12T12:16:31.496Z,79.40
2019-05-12T12:19:05.144Z,80.20
2019-05-12T12:21:35.015Z,80.70
2019-05-12T12:24:05.945Z,86.10
2019-05-12T12:26:37.289Z,81.40
2019-05-12T12:29:08.021Z,85.60
2019-05-12T12:31:52.155Z,84.70
2019-05-12T12:34:25.500Z,88.00
2019-05-12T12:36:55.307Z,84.70
2019-05-12T12:39:25.800Z,85.70
2019-05-12T12:42:00.551Z,84.00
2019-05-12T12:44:28.881Z,82.90
2019-05-12T12:47:01.586Z,83.70
2019-05-12T12:49:34.015Z,88.80
2019-05-12T12:52:04.689Z,82.20
2019-05-12T12:54:37.091Z,82.60
2019-05-12T12:57:09.883Z,85.00
2019-05-12T12:59:42.864Z,82.60
2019-05-12T13:02:14.189Z,87.20
2019-05-12T13:04:50.304Z,91.40
2019-05-12T13:07:18.529Z,86.70
2019-05-12T13:09:54.141Z,85.90
2019-05-12T13:12:21.548Z,87.50
2019-05-12T13:14:53.250Z,85.90
2019-05-12T13:17:29.058Z,85.80
2019-05-12T13:19:58.725Z,86.20
2019-05-12T13:22:29.728Z,87.20
2019-05-12T13:25:04.568Z,91.20
2019-05-12T13:27:36.377Z,90.20
2019-05-12T13:30:05.759Z,91.50
2019-05-12T13:32:38.003Z,89.30
2019-05-12T13:35:09.642Z,91.40
2019-05-12T13:37:43.290Z,90.10
2019-05-12T13:40:14.619Z,93.90
2019-05-12T13:42:45.148Z,94.30
2019-05-12T13:45:16.445Z,92.90
2019-05-12T13:47:47.072Z,94.50
2019-05-12T13:50:21.545Z,93.60
2019-05-12T13:52:54.053Z,92.80
2019-05-12T13:55:24.221Z,94.40
2019-05-12T13:57:57.628Z,94.00
2019-05-12T14:00:27.129Z,94.70
2019-05-12T14:03:04.682Z,93.70
2019-05-12T14:05:30.163Z,93.70
2019-05-12T14:08:03.906Z,93.20
2019-05-12T14:10:37.413Z,93.30
2019-05-12T14:13:06.831Z,90.50
2019-05-12T14:15:37.356Z,92.40
2019-05-12T14:18:10.252Z,95.40
2019-05-12T14:20:40.572Z,90.80
2019-05-12T14:23:11.045Z,90.70
2019-05-12T14:25:43.725Z,91.30
2019-05-12T14:28:16.574Z,93.30
2019-05-12T14:30:47.428Z,94.40
2019-05-12T14:33:18.552Z,97.00
2019-05-12T14:35:49.831Z,94.90
2019-05-12T14:38:27.592Z,95.50
2019-05-12T14:40:53.625Z,96.70
2019-05-12T14:43:24.435Z,95.50
2019-05-12T14:45:54.939Z,98.50
2019-05-12T14:48:26.550Z,96.80
2019-05-12T14:50:56.923Z,97.50
2019-05-12T14:53:27.469Z,99.00
2019-05-12T14:55:57.927Z,99.90
2019-05-12T14:58:28.422Z,99.90
2019-05-12T15:00:58.996Z,98.40
2019-05-12T15:03:29.676Z,99.70
2019-05-12T15:06:03.582Z,98.10
2019-05-12T15:08:38.807Z,99.00
2019-05-12T15:11:07.125Z,98.70
2019-05-12T15:13:37.488Z,99.10
2019-05-12T15:16:07.984Z,99.10
2019-05-12T15:18:39.717Z,97.60
2019-05-12T15:21:10.534Z,99.90
2019-05-12T15:23:41.262Z,97.50
2019-05-12T15:26:15.765Z,99.90
2019-05-12T15:28:43.943Z,98.80
2019-05-12T15:31:14.944Z,99.40
2019-05-12T15:33:45.319Z,99.90
2019-05-12T15:36:15.975Z,98.20
2019-05-12T15:38:49.241Z,99.90
2019-05-12T15:41:20.037Z,99.90
2019-05-12T15:43:52.951Z,99.90
2019-05-12T15:46:24.533Z,99.90
2019-05-12T15:48:55.143Z,99.90
2019-05-12T15:51:25.992Z,99.90
2019-05-12T15:54:05.130Z,99.90
2019-05-12T15:56:29.139Z,99.90
2019-05-12T15:59:01.075Z,99.90
2019-05-12T16:01:33.476Z,99.90
2019-05-12T16:04:04.060Z,99.90
2019-05-12T16:06:34.544Z,99.90
2019-05-12T16:09:06.598Z,99.90
2019-05-12T16:11:37.319Z,99.90
2019-05-12T16:14:08.012Z,99.90
2019-05-12T16:16:42.465Z,99.90
2019-05-12T16:19:11.323Z,99.90
2019-05-12T16:21:45.302Z,99.90
2019-05-12T16:24:15.873Z,99.90
2019-05-12T16:26:51.620Z,99.90
2019-05-12T16:29:18.640Z,99.90
2019-05-12T16:31:49.975Z,99.90
2019-05-12T16:34:21.243Z,99.90
2019-05-12T16:36:54.237Z,99.90
2019-05-12T16:39:24.062Z,99.90
2019-05-12T16:41:54.570Z,99.90
2019-05-12T16:44:26.438Z,99.90
2019-05-12T16:46:57.131Z,99.90
2019-05-12T16:49:33.238Z,99.90
2019-05-12T16:51:59.818Z,99.90
2019-05-12T16:54:30.408Z,99.90
2019-05-12T16:57:06.420Z,99.90
2019-05-12T16:59:33.292Z,99.90
2019-05-12T17:02:07.625Z,99.90
2019-05-12T17:04:36.059Z,99.90
2019-05-12T17:07:09.860Z,99.90
2019-05-12T17:09:38.770Z,99.90
2019-05-12T17:12:09.915Z,99.90
2019-05-12T17:14:48.069Z,99.90
2019-05-12T17:17:14.417Z,99.90
2019-05-12T17:19:44.861Z,99.90
2019-05-12T17:22:17.559Z,99.90
2019-05-12T17:24:48.309Z,99.90
2019-05-12T17:27:24.288Z,99.90
2019-05-12T17:29:51.163Z,99.90
2019-05-12T17:32:23.846Z,99.90
2019-05-12T17:34:54.203Z,99.90
2019-05-12T17:37:31.359Z,99.90
2019-05-12T17:39:58.972Z,99.90
2019-05-12T17:42:29.587Z,99.90
2019-05-12T17:45:00.315Z,99.90
2019-05-12T17:47:31.971Z,99.90
2019-05-12T17:50:06.779Z,99.90
2019-05-12T17:52:34.848Z,99.90
2019-05-12T17:55:10.734Z,99.90
2019-05-12T17:57:38.635Z,99.90
2019-05-12T18:00:10.787Z,99.90
2019-05-12T18:02:43.640Z,99.90
2019-05-12T18:05:15.499Z,99.90
2019-05-12T18:07:50.824Z,99.90
2019-05-12T18:10:18.777Z,99.90
2019-05-12T18:12:49.973Z,99.90
2019-05-12T18:15:23.361Z,99.90
2019-05-12T18:17:53.292Z,99.90
2019-05-12T18:20:24.176Z,99.90
2019-05-12T18:22:55.002Z,99.90
2019-05-12T18:25:30.331Z,99.90
2019-05-12T18:27:57.773Z,99.90
2019-05-12T18:30:28.309Z,99.90
2019-05-12T18:33:04.295Z,99.90
2019-05-12T18:35:31.154Z,99.90
2019-05-12T18:38:01.909Z,99.90
2019-05-12T18:40:34.200Z,99.90
2019-05-12T18:43:04.450Z,99.90
2019-05-12T18:45:36.059Z,99.90
2019-05-12T18:48:16.789Z,99.90
2019-05-12T18:50:40.199Z,99.90
2019-05-12T18:53:14.460Z,99.90
2019-05-12T18:55:44.299Z,99.90
2019-05-12T18:58:15.055Z,99.90
2019-05-12T19:00:45.552Z,99.90
2019-05-12T19:03:16.954Z,99.90
2019-05-12T19:05:47.551Z,99.90
2019-05-12T19:08:20.330Z,99.90
2019-05-12T19:10:51.857Z,99.90
2019-05-12T19:13:23.165Z,99.90
2019-05-12T19:16:02.489Z,99.90
2019-05-12T19:18:32.444Z,99.90
2019-05-12T19:20:58.495Z,99.90
2019-05-12T19:23:34.961Z,99.90
2019-05-12T19:26:01.152Z,99.90
2019-05-12T19:28:34.141Z,99.90
2019-05-12T19:31:09.977Z,99.90
2019-05-12T19:33:43.813Z,99.90
2019-05-12T19:36:10.341Z,99.90
2019-05-12T19:38:43.691Z,99.90
2019-05-12T19:41:14.060Z,99.90
2019-05-12T19:43:49.393Z,99.90
2019-05-12T19:46:17.060Z,99.90
2019-05-12T19:48:49.844Z,99.90
2019-05-12T19:51:24.740Z,99.90
2019-05-12T19:53:52.436Z,99.90
2019-05-12T19:56:23.929Z,99.90
2019-05-12T19:58:54.564Z,99.90
2019-05-12T20:01:32.605Z,99.90
2019-05-12T20:03:58.115Z,99.90
2019-05-12T20:06:28.704Z,99.90
2019-05-12T20:09:06.009Z,99.90
2019-05-12T20:11:31.680Z,99.90
2019-05-12T20:14:04.271Z,99.90
2019-05-12T20:16:35.670Z,99.90
2019-05-12T20:19:06.195Z,99.90
2019-05-12T20:21:36.868Z,99.90
2019-05-12T20:24:09.005Z,99.90
2019-05-12T20:26:40.222Z,99.90
2019-05-12T20:29:10.969Z,99.90
2019-05-12T20:31:46.676Z,99.90
2019-05-12T20:34:14.028Z,99.90
2019-05-12T20:36:44.800Z,99.90
2019-05-12T20:39:21.408Z,99.90
2019-05-12T20:41:47.462Z,99.90
2019-05-12T20:44:19.927Z,99.90
2019-05-12T20:46:50.204Z,99.90
2019-05-12T20:49:23.981Z,99.90
2019-05-12T20:52:02.878Z,99.90
2019-05-12T20:54:26.855Z,99.90
2019-05-12T20:57:08.156Z,99.90
2019-05-12T20:59:30.480Z,99.90
2019-05-12T21:02:03.395Z,99.90
2019-05-12T21:04:37.758Z,99.90
2019-05-12T21:07:06.015Z,99.90
2019-05-12T21:09:36.728Z,99.90
2019-05-12T21:12:07.455Z,99.90
2019-05-12T21:14:42.539Z,99.90
2019-05-12T21:17:15.900Z,99.90
2019-05-12T21:19:55.762Z,99.90
2019-05-12T21:22:15.480Z,99.90
2019-05-12T21:24:46.006Z,99.90
2019-05-12T21:27:19.806Z,99.90
2019-05-12T21:29:48.542Z,99.90
2019-05-12T21:32:18.988Z,99.90
2019-05-12T21:34:52.289Z,99.90
2019-05-12T21:37:21.609Z,99.90
2019-05-12T21:39:52.339Z,99.90
2019-05-12T21:42:25.172Z,99.90
2019-05-12T21:44:56.947Z,99.90
2019-05-12T21:47:27.768Z,99.90
2019-05-12T21:49:58.138Z,99.90
2019-05-12T21:52:37.227Z,99.90
2019-05-12T21:55:05.956Z,99.90
2019-05-12T21:57:34.542Z,99.90
2019-05-12T22:00:18.254Z,99.90
2019-05-12T22:02:45.360Z,99.90
2019-05-12T22:05:23.658Z,99.90
2019-05-12T22:07:48.319Z,99.90
2019-05-12T22:10:25.259Z,99.90
2019-05-12T22:12:53.218Z,99.90
2019-05-12T22:15:24.717Z,99.90
2019-05-12T22:18:04.835Z,99.90
2019-05-12T22:20:36.392Z,99.90
2019-05-12T22:23:11.561Z,99.90
2019-05-12T22:25:38.871Z,99.90
2019-05-12T22:28:10.369Z,99.90
2019-05-12T22:30:43.578Z,99.90
2019-05-12T22:33:14.024Z,99.90
2019-05-12T22:35:44.739Z,99.90
2019-05-12T22:38:20.703Z,99.90
2019-05-12T22:40:49.279Z,99.90
2019-05-12T22:43:20.754Z,99.90
2019-05-12T22:45:51.280Z,99.90
2019-05-12T22:48:22.772Z,99.90
2019-05-12T22:50:54.958Z,99.90
2019-05-12T22:53:29.793Z,99.90
2019-05-12T22:56:03.059Z,99.90
2019-05-12T22:58:29.809Z,99.90
2019-05-12T23:01:01.009Z,99.90
2019-05-12T23:03:32.503Z,99.90
2019-05-12T23:06:13.138Z,99.90
2019-05-12T23:08:38.920Z,99.90
2019-05-12T23:11:07.575Z,99.90
2019-05-12T23:13:42.582Z,99.90
2019-05-12T23:16:10.455Z,99.90
2019-05-12T23:18:44.300Z,99.90
2019-05-12T23:21:17.449Z,99.90
2019-05-12T23:23:49.843Z,99.90
2019-05-12T23:26:18.339Z,99.90
2019-05-12T23:28:50.313Z,99.90
2019-05-12T23:31:25.996Z,99.90
2019-05-12T23:33:54.364Z,99.90
2019-05-12T23:36:35.620Z,99.90
2019-05-12T23:39:00.469Z,99.90
2019-05-12T23:41:29.187Z,99.90
2019-05-12T23:43:59.613Z,99.90
2019-05-12T23:46:30.415Z,99.90
2019-05-12T23:49:03.651Z,99.90
2019-05-12T23:51:34.080Z,99.90
2019-05-12T23:54:05.850Z,99.90
2019-05-12T23:56:36.724Z,99.90
2019-05-12T23:59:07.148Z,99.90
